sensor_id;sensor_type;location;lat;lon;timestamp;P1;durP1;ratioP1;P2;durP2;ratioP2
12072;SDS011;6098;49.004;8.372;2024-03-23T00:57:28;4.60;;;3.52;;
12072;SDS011;6098;49.004;8.372;2024-03-23T01:12:20;5.87;;;4.64;;
12072;SDS011;6098;49.004;8.372;2024-03-23T01:27:13;5.09;;;3.38;;
12072;SDS011;6098;49.004;8.372;2024-03-23T01:42:05;4.74;;;3.77;;
12072;SDS011;6098;49.004;8.372;2024-03-23T01:56:57;4.60;;;3.14;;
12072;SDS011;6098;49.004;8.372;2024-03-23T02:11:49;4.48;;;2.87;;
12072;SDS011;6098;49.004;8.372;2024-03-23T02:26:42;5.29;;;3.36;;
12072;SDS011;6098;49.004;8.372;2024-03-23T02:41:33;3.77;;;3.10;;
12072;SDS011;6098;49.004;8.372;2024-03-23T02:56:25;7.11;;;4.01;;
12072;SDS011;6098;49.004;8.372;2024-03-23T03:26:25;8.09;;;5.16;;
12072;SDS011;6098;49.004;8.372;2024-03-23T03:41:18;7.66;;;5.10;;
12072;SDS011;6098;49.004;8.372;2024-03-23T03:56:09;9.17;;;5.69;;
12072;SDS011;6098;49.004;8.372;2024-03-23T04:11:00;10.68;;;6.63;;
12072;SDS011;6098;49.004;8.372;2024-03-23T04:25:51;13.81;;;6.60;;
12072;SDS011;6098;49.004;8.372;2024-03-23T04:40:42;6.20;;;4.12;;
12072;SDS011;6098;49.004;8.372;2024-03-23T04:55:34;6.44;;;3.89;;
12072;SDS011;6098;49.004;8.372;2024-03-23T05:10:26;6.08;;;3.17;;
12072;SDS011;6098;49.004;8.372;2024-03-23T05:25:18;2.30;;;1.44;;
12072;SDS011;6098;49.004;8.372;2024-03-23T05:40:11;1.41;;;0.91;;
12072;SDS011;6098;49.004;8.372;2024-03-23T05:55:04;1.12;;;0.60;;
12072;SDS011;6098;49.004;8.372;2024-03-23T06:09:59;0.73;;;0.58;;
12072;SDS011;6098;49.004;8.372;2024-03-23T06:24:50;0.40;;;0.40;;
12072;SDS011;6098;49.004;8.372;2024-03-23T06:39:45;0.57;;;0.54;;
12072;SDS011;6098;49.004;8.372;2024-03-23T06:54:34;0.59;;;0.59;;
12072;SDS011;6098;49.004;8.372;2024-03-23T07:09:25;0.40;;;0.40;;
12072;SDS011;6098;49.004;8.372;2024-03-23T07:24:16;0.40;;;0.40;;
12072;SDS011;6098;49.004;8.372;2024-03-23T07:39:07;0.37;;;0.37;;
12072;SDS011;6098;49.004;8.372;2024-03-23T07:53:58;0.40;;;0.40;;
12072;SDS011;6098;49.004;8.372;2024-03-23T08:08:56;0.93;;;0.60;;
12072;SDS011;6098;49.004;8.372;2024-03-23T08:23:50;1.54;;;1.10;;
12072;SDS011;6098;49.004;8.372;2024-03-23T08:38:42;3.18;;;1.34;;
12072;SDS011;6098;49.004;8.372;2024-03-23T08:53:34;4.81;;;1.76;;
12072;SDS011;6098;49.004;8.372;2024-03-23T09:08:24;2.98;;;1.71;;
12072;SDS011;6098;49.004;8.372;2024-03-23T09:23:16;4.70;;;1.80;;
12072;SDS011;6098;49.004;8.372;2024-03-23T09:38:07;5.13;;;1.80;;
12072;SDS011;6098;49.004;8.372;2024-03-23T09:52:57;4.13;;;2.32;;
12072;SDS011;6098;49.004;8.372;2024-03-23T10:07:51;5.13;;;2.42;;
12072;SDS011;6098;49.004;8.372;2024-03-23T10:22:46;4.83;;;2.47;;
12072;SDS011;6098;49.004;8.372;2024-03-23T10:37:39;4.92;;;2.27;;
12072;SDS011;6098;49.004;8.372;2024-03-23T10:52:30;5.53;;;2.37;;
12072;SDS011;6098;49.004;8.372;2024-03-23T11:22:17;5.30;;;1.90;;
12072;SDS011;6098;49.004;8.372;2024-03-23T11:37:13;4.13;;;1.68;;
12072;SDS011;6098;49.004;8.372;2024-03-23T11:52:05;5.99;;;1.60;;
12072;SDS011;6098;49.004;8.372;2024-03-23T12:07:14;4.63;;;1.78;;
12072;SDS011;6098;49.004;8.372;2024-03-23T12:22:13;4.18;;;1.60;;
12072;SDS011;6098;49.004;8.372;2024-03-23T12:37:08;3.67;;;1.37;;
12072;SDS011;6098;49.004;8.372;2024-03-23T12:51:58;3.24;;;1.29;;
12072;SDS011;6098;49.004;8.372;2024-03-23T13:06:43;1.24;;;0.77;;
12072;SDS011;6098;49.004;8.372;2024-03-23T13:21:34;1.23;;;0.74;;
12072;SDS011;6098;49.004;8.372;2024-03-23T13:36:29;0.52;;;0.48;;
12072;SDS011;6098;49.004;8.372;2024-03-23T13:51:24;2.26;;;0.62;;
12072;SDS011;6098;49.004;8.372;2024-03-23T14:06:18;1.20;;;0.63;;
12072;SDS011;6098;49.004;8.372;2024-03-23T14:21:08;2.32;;;0.73;;
12072;SDS011;6098;49.004;8.372;2024-03-23T14:35:58;3.13;;;0.64;;
12072;SDS011;6098;49.004;8.372;2024-03-23T14:50:58;1.43;;;0.52;;
12072;SDS011;6098;49.004;8.372;2024-03-23T15:05:59;0.40;;;0.39;;
12072;SDS011;6098;49.004;8.372;2024-03-23T15:20:55;1.70;;;0.72;;
12072;SDS011;6098;49.004;8.372;2024-03-23T15:35:41;2.37;;;0.93;;
12072;SDS011;6098;49.004;8.372;2024-03-23T15:50:30;1.20;;;0.66;;
12072;SDS011;6098;49.004;8.372;2024-03-23T16:05:19;0.96;;;0.62;;
12072;SDS011;6098;49.004;8.372;2024-03-23T16:20:12;1.66;;;0.83;;
12072;SDS011;6098;49.004;8.372;2024-03-23T16:34:59;0.57;;;0.57;;
12072;SDS011;6098;49.004;8.372;2024-03-23T16:49:50;2.51;;;0.90;;
12072;SDS011;6098;49.004;8.372;2024-03-23T17:04:41;3.31;;;0.88;;
12072;SDS011;6098;49.004;8.372;2024-03-23T17:19:32;1.19;;;0.68;;
12072;SDS011;6098;49.004;8.372;2024-03-23T17:34:23;0.74;;;0.70;;
12072;SDS011;6098;49.004;8.372;2024-03-23T17:49:13;1.61;;;0.79;;
12072;SDS011;6098;49.004;8.372;2024-03-23T18:04:04;0.82;;;0.82;;
12072;SDS011;6098;49.004;8.372;2024-03-23T18:18:55;4.23;;;1.00;;
12072;SDS011;6098;49.004;8.372;2024-03-23T18:33:46;2.21;;;1.16;;
12072;SDS011;6098;49.004;8.372;2024-03-23T18:48:37;2.29;;;1.03;;
12072;SDS011;6098;49.004;8.372;2024-03-23T19:03:29;1.81;;;0.73;;
12072;SDS011;6098;49.004;8.372;2024-03-23T19:18:20;1.77;;;0.80;;
12072;SDS011;6098;49.004;8.372;2024-03-23T19:33:11;1.60;;;0.79;;
12072;SDS011;6098;49.004;8.372;2024-03-23T19:48:02;2.09;;;1.10;;
12072;SDS011;6098;49.004;8.372;2024-03-23T20:02:55;3.18;;;0.84;;
12072;SDS011;6098;49.004;8.372;2024-03-23T20:17:46;2.09;;;1.09;;
12072;SDS011;6098;49.004;8.372;2024-03-23T20:32:38;1.63;;;0.70;;
12072;SDS011;6098;49.004;8.372;2024-03-23T20:47:28;0.90;;;0.90;;
12072;SDS011;6098;49.004;8.372;2024-03-23T21:02:21;2.08;;;1.11;;
12072;SDS011;6098;49.004;8.372;2024-03-23T21:17:12;1.28;;;0.80;;
12072;SDS011;6098;49.004;8.372;2024-03-23T21:32:03;1.23;;;0.90;;
12072;SDS011;6098;49.004;8.372;2024-03-23T21:46:55;0.89;;;0.80;;
12072;SDS011;6098;49.004;8.372;2024-03-23T22:01:45;1.06;;;0.74;;
12072;SDS011;6098;49.004;8.372;2024-03-23T22:16:36;2.68;;;1.13;;
12072;SDS011;6098;49.004;8.372;2024-03-23T22:31:26;0.84;;;0.60;;
12072;SDS011;6098;49.004;8.372;2024-03-23T22:46:17;0.74;;;0.58;;
12072;SDS011;6098;49.004;8.372;2024-03-23T23:01:11;0.68;;;0.54;;
12072;SDS011;6098;49.004;8.372;2024-03-23T23:16:02;1.93;;;0.70;;
12072;SDS011;6098;49.004;8.372;2024-03-23T23:30:58;1.62;;;0.80;;
12072;SDS011;6098;49.004;8.372;2024-03-23T23:45:51;1.01;;;0.90;;
